Time;durP1;ratioP1;P1;durP2;ratioP2;P2;SDS_P1;SDS_P2;PMS_P1;PMS_P2;Temp;Humidity;BMP_temperature;BMP_pressure;BME280_temperature;BME280_humidity;BME280_pressure;Samples;Min_cycle;Max_cycle;Signal;HPM_P1;HPM_P2
2021/10/11 00:02:09;;;;;;;16.02;7.85;;;;;;;;;;5094211;28;20020;-85
2021/10/11 00:04:37;;;;;;;17.85;8.45;;;;;;;;;;5095980;28;20415;-85
2021/10/11 00:07:04;;;;;;;21.63;8.65;;;;;;;;;;5095366;28;20020;-85
2021/10/11 00:09:30;;;;;;;19.38;8.50;;;;;;;;;;5094070;28;20442;-85
2021/10/11 00:11:56;;;;;;;21.30;8.93;;;;;;;;;;5094061;28;20020;-85
2021/10/11 00:14:24;;;;;;;18.17;9.02;;;;;;;;;;5095802;28;20084;-85
2021/10/11 00:16:50;;;;;;;18.95;8.60;;;;;;;;;;5093931;28;20549;-85
2021/10/11 00:19:17;;;;;;;21.33;9.30;;;;;;;;;;5093764;28;20059;-85
2021/10/11 00:21:43;;;;;;;18.13;8.15;;;;;;;;;;5093814;28;20392;-85
2021/10/11 00:24:09;;;;;;;21.88;8.55;;;;;;;;;;5093802;28;20058;-86
2021/10/11 00:26:35;;;;;;;21.33;8.98;;;;;;;;;;5093771;28;20020;-85
2021/10/11 00:29:01;;;;;;;20.50;8.60;;;;;;;;;;5092807;28;20028;-85
2021/10/11 00:31:27;;;;;;;17.23;9.20;;;;;;;;;;5093678;28;20016;-85
2021/10/11 00:33:53;;;;;;;19.58;8.63;;;;;;;;;;5093621;28;20035;-85
2021/10/11 00:36:20;;;;;;;17.15;9.55;;;;;;;;;;5093948;28;20020;-85
2021/10/11 00:38:46;;;;;;;21.88;9.75;;;;;;;;;;5093477;28;20024;-85
2021/10/11 00:41:12;;;;;;;21.52;8.73;;;;;;;;;;5093545;28;20391;-85
2021/10/11 00:43:39;;;;;;;21.33;9.57;;;;;;;;;;5093423;28;20055;-84
2021/10/11 00:46:05;;;;;;;24.52;10.98;;;;;;;;;;5094585;28;20544;-85
2021/10/11 00:48:31;;;;;;;18.73;9.65;;;;;;;;;;5094594;28;20058;-85
2021/10/11 00:50:57;;;;;;;19.98;9.38;;;;;;;;;;5093345;28;20020;-85
2021/10/11 00:53:26;;;;;;;22.58;9.35;;;;;;;;;;5093315;28;20532;-85
2021/10/11 00:55:52;;;;;;;19.63;9.57;;;;;;;;;;5093126;28;20450;-86
2021/10/11 00:58:18;;;;;;;19.65;9.35;;;;;;;;;;5093026;28;20028;-84
2021/10/11 01:00:44;;;;;;;21.13;8.93;;;;;;;;;;5093099;28;20483;-85
2021/10/11 01:03:10;;;;;;;18.17;8.05;;;;;;;;;;5093055;28;20024;-85
2021/10/11 01:05:37;;;;;;;19.02;7.88;;;;;;;;;;5093108;28;20170;-85
2021/10/11 01:08:03;;;;;;;19.02;8.18;;;;;;;;;;5093089;28;20112;-84
2021/10/11 01:10:29;;;;;;;18.33;7.10;;;;;;;;;;5092928;28;20118;-85
2021/10/11 01:12:55;;;;;;;18.45;8.20;;;;;;;;;;5093037;28;20036;-85
2021/10/11 01:15:21;;;;;;;20.33;8.35;;;;;;;;;;5094186;28;20387;-85
2021/10/11 01:17:47;;;;;;;20.27;8.07;;;;;;;;;;5092741;28;20034;-86
2021/10/11 01:20:13;;;;;;;18.40;8.23;;;;;;;;;;5092683;28;20055;-85
2021/10/11 01:22:41;;;;;;;19.63;8.80;;;;;;;;;;5092690;28;20024;-84
2021/10/11 01:25:09;;;;;;;23.60;9.52;;;;;;;;;;5093955;28;20028;-85
2021/10/11 01:27:35;;;;;;;21.67;8.77;;;;;;;;;;5094462;28;20031;-86
2021/10/11 01:30:02;;;;;;;21.13;9.98;;;;;;;;;;5092642;28;20020;-85
2021/10/11 01:32:28;;;;;;;28.75;10.32;;;;;;;;;;5092613;28;20051;-85
2021/10/11 01:34:54;;;;;;;26.95;9.38;;;;;;;;;;5092595;28;20044;-85
2021/10/11 01:37:20;;;;;;;25.60;9.80;;;;;;;;;;5093852;28;20063;-84
2021/10/11 01:39:46;;;;;;;23.48;10.35;;;;;;;;;;5092207;28;20058;-85
2021/10/11 01:42:12;;;;;;;24.33;10.00;;;;;;;;;;5092456;28;20016;-84
2021/10/11 01:44:40;;;;;;;21.45;10.60;;;;;;;;;;5092483;28;20063;-84
2021/10/11 01:47:06;;;;;;;23.90;10.32;;;;;;;;;;5092389;28;20030;-85
2021/10/11 01:49:33;;;;;;;22.33;10.30;;;;;;;;;;5092422;28;20032;-85
2021/10/11 01:51:59;;;;;;;24.50;10.45;;;;;;;;;;5092380;28;20094;-85
2021/10/11 01:54:25;;;;;;;25.67;10.25;;;;;;;;;;5092185;28;20059;-85
2021/10/11 01:56:51;;;;;;;24.50;10.18;;;;;;;;;;5092311;28;20477;-85
2021/10/11 01:59:17;;;;;;;26.70;11.68;;;;;;;;;;5093552;28;20024;-85
2021/10/11 02:01:43;;;;;;;20.50;10.88;;;;;;;;;;5092292;28;20039;-85
2021/10/11 02:04:09;;;;;;;30.85;11.48;;;;;;;;;;5092178;28;20369;-85
2021/10/11 02:06:35;;;;;;;24.20;11.95;;;;;;;;;;5092236;28;20024;-85
2021/10/11 02:09:01;;;;;;;28.88;12.27;;;;;;;;;;5092131;28;20020;-85
2021/10/11 02:11:28;;;;;;;31.63;11.73;;;;;;;;;;5092209;28;20385;-85
2021/10/11 02:13:55;;;;;;;33.92;12.65;;;;;;;;;;5092164;28;20054;-85
2021/10/11 02:16:22;;;;;;;24.80;11.20;;;;;;;;;;5092128;28;20098;-85
2021/10/11 02:18:48;;;;;;;28.00;11.60;;;;;;;;;;5092048;28;20028;-85
2021/10/11 02:21:14;;;;;;;28.63;11.50;;;;;;;;;;5092137;28;20427;-84
2021/10/11 02:23:40;;;;;;;25.27;10.40;;;;;;;;;;5092105;28;20073;-85
2021/10/11 02:26:06;;;;;;;29.67;11.05;;;;;;;;;;5092083;28;20063;-86
2021/10/11 02:28:32;;;;;;;28.67;11.68;;;;;;;;;;5091977;28;20547;-86
2021/10/11 02:30:58;;;;;;;25.67;10.32;;;;;;;;;;5093206;28;20030;-85
2021/10/11 02:33:24;;;;;;;32.47;11.55;;;;;;;;;;5092099;28;20028;-83
2021/10/11 02:35:50;;;;;;;23.55;10.75;;;;;;;;;;5091949;28;20020;-85
2021/10/11 02:38:17;;;;;;;28.38;11.07;;;;;;;;;;5091917;28;20036;-84
2021/10/11 02:40:43;;;;;;;26.60;10.82;;;;;;;;;;5093168;28;20408;-84
2021/10/11 02:43:09;;;;;;;24.55;11.10;;;;;;;;;;5091925;28;20060;-84
2021/10/11 02:45:35;;;;;;;22.85;10.40;;;;;;;;;;5092130;28;20035;-85
2021/10/11 02:48:05;;;;;;;27.65;11.00;;;;;;;;;;5093751;28;20449;-85
2021/10/11 02:50:31;;;;;;;26.08;10.85;;;;;;;;;;5093216;28;20387;-84
2021/10/11 02:52:57;;;;;;;25.20;10.45;;;;;;;;;;5093886;28;20027;-85
2021/10/11 02:55:23;;;;;;;31.80;10.93;;;;;;;;;;5095261;28;20052;-84
2021/10/11 02:57:50;;;;;;;28.80;10.40;;;;;;;;;;5096754;28;20036;-84
2021/10/11 03:00:16;;;;;;;27.92;11.38;;;;;;;;;;5095358;28;20028;-84
2021/10/11 03:02:42;;;;;;;25.73;11.30;;;;;;;;;;5095400;28;20028;-85
2021/10/11 03:05:08;;;;;;;26.48;12.10;;;;;;;;;;5095278;28;20495;-85
2021/10/11 03:07:35;;;;;;;25.45;10.55;;;;;;;;;;5095313;28;20044;-84
2021/10/11 03:10:01;;;;;;;30.67;10.55;;;;;;;;;;5095294;28;20032;-85
2021/10/11 03:12:27;;;;;;;21.45;10.88;;;;;;;;;;5095173;28;20028;-84
2021/10/11 03:14:53;;;;;;;22.77;10.15;;;;;;;;;;5096368;28;20427;-84
2021/10/11 03:17:20;;;;;;;29.52;10.27;;;;;;;;;;5096928;28;20028;-84
2021/10/11 03:19:46;;;;;;;24.75;11.48;;;;;;;;;;5096729;28;20469;-84
2021/10/11 03:22:13;;;;;;;29.50;12.23;;;;;;;;;;5096350;28;20028;-84
2021/10/11 03:24:39;;;;;;;27.00;11.52;;;;;;;;;;5094907;28;20161;-84
2021/10/11 03:27:06;;;;;;;27.45;11.48;;;;;;;;;;5095000;28;20035;-84
2021/10/11 03:29:32;;;;;;;37.58;12.98;;;;;;;;;;5094836;28;20024;-84
2021/10/11 03:31:58;;;;;;;25.60;11.55;;;;;;;;;;5094818;28;20020;-84
2021/10/11 03:34:24;;;;;;;29.80;11.90;;;;;;;;;;5096032;28;20028;-84
2021/10/11 03:36:50;;;;;;;29.85;12.68;;;;;;;;;;5094708;28;20050;-84
2021/10/11 03:39:17;;;;;;;26.20;11.90;;;;;;;;;;5094579;28;20036;-84
2021/10/11 03:41:43;;;;;;;28.13;12.50;;;;;;;;;;5094613;28;20047;-84
2021/10/11 03:44:10;;;;;;;31.95;11.45;;;;;;;;;;5094551;28;20032;-84
2021/10/11 03:46:36;;;;;;;25.95;10.93;;;;;;;;;;5095777;28;20442;-84
2021/10/11 03:49:03;;;;;;;26.13;11.45;;;;;;;;;;5094421;28;20024;-83
2021/10/11 03:51:30;;;;;;;25.73;11.43;;;;;;;;;;5096250;28;20032;-83
2021/10/11 03:53:56;;;;;;;27.80;13.02;;;;;;;;;;5094404;28;20025;-84
2021/10/11 03:56:23;;;;;;;26.33;12.75;;;;;;;;;;5094164;28;20048;-84
2021/10/11 03:58:49;;;;;;;25.13;12.10;;;;;;;;;;5096018;28;20407;-84
2021/10/11 04:01:16;;;;;;;22.75;9.82;;;;;;;;;;5094238;28;20024;-83
2021/10/11 04:03:43;;;;;;;23.95;9.32;;;;;;;;;;5094099;28;20392;-84
2021/10/11 04:06:09;;;;;;;22.48;8.40;;;;;;;;;;5095351;28;20537;-84
2021/10/11 04:08:38;;;;;;;25.17;7.85;;;;;;;;;;5094102;28;20027;-84
2021/10/11 04:11:21;;;;;;;20.42;7.95;;;;;;;;;;5095896;28;20133;-84
2021/10/11 04:13:47;;;;;;;16.67;7.75;;;;;;;;;;5094441;28;20051;-85
2021/10/11 04:16:14;;;;;;;25.65;9.10;;;;;;;;;;5094473;28;20078;-84
2021/10/11 04:18:41;;;;;;;17.70;7.72;;;;;;;;;;5095757;28;20029;-84
2021/10/11 04:21:07;;;;;;;24.25;9.07;;;;;;;;;;5095192;28;20032;-84
2021/10/11 04:23:34;;;;;;;21.13;9.93;;;;;;;;;;5093752;28;20036;-85
2021/10/11 04:26:00;;;;;;;32.22;10.25;;;;;;;;;;5093778;28;20024;-83
2021/10/11 04:28:26;;;;;;;33.47;9.88;;;;;;;;;;5093785;28;20024;-85
2021/10/11 04:30:52;;;;;;;28.88;9.90;;;;;;;;;;5093651;28;20028;-85
2021/10/11 04:33:21;;;;;;;28.88;10.48;;;;;;;;;;5093655;28;20028;-85
2021/10/11 04:35:48;;;;;;;26.17;10.10;;;;;;;;;;5093480;28;20027;-84
2021/10/11 04:38:14;;;;;;;24.63;9.73;;;;;;;;;;5095368;28;20025;-84
2021/10/11 04:40:40;;;;;;;23.02;10.07;;;;;;;;;;5094641;28;20036;-84
2021/10/11 04:43:07;;;;;;;27.17;9.93;;;;;;;;;;5093510;28;20034;-84
2021/10/11 04:45:33;;;;;;;24.42;9.85;;;;;;;;;;5093437;28;20459;-85
2021/10/11 04:48:01;;;;;;;25.40;9.38;;;;;;;;;;5094561;28;20472;-84
2021/10/11 04:50:31;;;;;;;24.70;9.75;;;;;;;;;;5093337;28;20028;-85
2021/10/11 04:52:57;;;;;;;22.58;9.88;;;;;;;;;;5093176;28;20532;-84
2021/10/11 04:55:24;;;;;;;24.88;10.30;;;;;;;;;;5093027;28;20140;-84
2021/10/11 04:57:50;;;;;;;23.75;10.25;;;;;;;;;;5094492;28;20027;-84
2021/10/11 05:00:19;;;;;;;18.58;8.68;;;;;;;;;;5094392;28;20124;-84
2021/10/11 05:02:46;;;;;;;25.73;10.90;;;;;;;;;;5094458;28;20445;-83
2021/10/11 05:05:12;;;;;;;37.53;12.43;;;;;;;;;;5093257;28;20472;-82
2021/10/11 05:07:38;;;;;;;23.75;11.18;;;;;;;;;;5093176;28;20032;-84
2021/10/11 05:10:05;;;;;;;22.58;10.77;;;;;;;;;;5093007;28;20070;-83
2021/10/11 05:12:31;;;;;;;22.60;9.85;;;;;;;;;;5094721;28;20152;-86
2021/10/11 05:14:59;;;;;;;27.27;11.52;;;;;;;;;;5092315;28;20468;-84
2021/10/11 05:17:25;;;;;;;29.80;12.30;;;;;;;;;;5094602;28;20400;-83
2021/10/11 05:19:51;;;;;;;26.42;12.88;;;;;;;;;;5094899;28;20036;-82
2021/10/11 05:22:17;;;;;;;36.40;14.27;;;;;;;;;;5094395;28;20043;-85
2021/10/11 05:24:45;;;;;;;33.75;13.38;;;;;;;;;;5092766;28;20028;-85
2021/10/11 05:27:11;;;;;;;39.20;14.02;;;;;;;;;;5092875;28;20067;-86
2021/10/11 05:29:37;;;;;;;34.58;14.18;;;;;;;;;;5092857;28;20028;-86
2021/10/11 05:32:05;;;;;;;34.38;14.10;;;;;;;;;;5089109;28;20031;-83
2021/10/11 05:34:31;;;;;;;33.88;14.45;;;;;;;;;;5086959;28;20055;-82
2021/10/11 05:36:59;;;;;;;39.63;15.32;;;;;;;;;;5093807;28;20381;-84
2021/10/11 05:39:25;;;;;;;32.78;13.57;;;;;;;;;;5093286;28;20538;-83
2021/10/11 05:41:51;;;;;;;43.00;14.38;;;;;;;;;;5092259;28;20047;-83
2021/10/11 05:44:17;;;;;;;25.35;12.85;;;;;;;;;;5092035;28;20392;-82
2021/10/11 05:46:44;;;;;;;35.92;13.68;;;;;;;;;;5092434;28;20393;-84
2021/10/11 05:49:10;;;;;;;25.80;12.45;;;;;;;;;;5091866;28;20059;-84
2021/10/11 05:51:36;;;;;;;32.38;14.18;;;;;;;;;;5093349;28;20103;-81
2021/10/11 05:54:03;;;;;;;24.17;11.35;;;;;;;;;;5092041;28;20039;-82
2021/10/11 05:56:29;;;;;;;27.52;11.88;;;;;;;;;;5092930;28;20048;-82
2021/10/11 05:58:55;;;;;;;24.90;11.32;;;;;;;;;;5093199;28;20093;-82
2021/10/11 06:01:21;;;;;;;32.55;12.15;;;;;;;;;;5091733;28;20036;-82
2021/10/11 06:03:47;;;;;;;27.27;12.27;;;;;;;;;;5091731;28;20081;-83
2021/10/11 06:06:13;;;;;;;29.02;12.10;;;;;;;;;;5092091;28;20028;-83
2021/10/11 06:08:39;;;;;;;26.20;10.70;;;;;;;;;;5093444;28;20099;-82
2021/10/11 06:11:05;;;;;;;23.00;10.85;;;;;;;;;;5091975;28;20028;-82
2021/10/11 06:13:32;;;;;;;26.85;11.70;;;;;;;;;;5093301;28;20376;-82
2021/10/11 06:15:58;;;;;;;29.55;11.35;;;;;;;;;;5093672;28;20020;-82
2021/10/11 06:18:24;;;;;;;32.38;12.02;;;;;;;;;;5091881;28;20031;-83
2021/10/11 06:20:50;;;;;;;23.40;10.63;;;;;;;;;;5091935;28;20028;-82
2021/10/11 06:23:16;;;;;;;26.48;11.35;;;;;;;;;;5091529;28;20028;-82
2021/10/11 06:25:42;;;;;;;27.13;11.35;;;;;;;;;;5091951;28;20109;-82
2021/10/11 06:28:08;;;;;;;25.83;11.48;;;;;;;;;;5094315;28;20051;-83
2021/10/11 06:30:34;;;;;;;28.38;11.20;;;;;;;;;;5095845;28;20062;-83
2021/10/11 06:33:00;;;;;;;23.35;11.20;;;;;;;;;;5095767;28;20123;-83
2021/10/11 06:35:27;;;;;;;22.20;9.90;;;;;;;;;;5095774;28;20462;-82
2021/10/11 06:37:55;;;;;;;28.30;14.05;;;;;;;;;;5096130;28;20028;-81
2021/10/11 06:40:21;;;;;;;30.90;11.57;;;;;;;;;;5095347;28;20043;-82
2021/10/11 06:42:47;;;;;;;26.90;10.52;;;;;;;;;;5095116;28;20422;-82
2021/10/11 06:45:14;;;;;;;22.02;10.32;;;;;;;;;;5095587;28;20031;-82
2021/10/11 06:47:40;;;;;;;22.25;10.30;;;;;;;;;;5095652;28;20035;-82
2021/10/11 06:50:06;;;;;;;32.95;13.52;;;;;;;;;;5095553;28;20024;-82
2021/10/11 06:52:33;;;;;;;24.25;12.10;;;;;;;;;;5095448;28;20148;-82
2021/10/11 06:54:59;;;;;;;23.65;10.20;;;;;;;;;;5095020;28;20116;-83
2021/10/11 06:57:25;;;;;;;23.83;10.10;;;;;;;;;;5095449;28;20052;-83
2021/10/11 06:59:51;;;;;;;22.08;10.40;;;;;;;;;;5095293;28;20442;-85
2021/10/11 07:02:20;;;;;;;18.88;9.90;;;;;;;;;;5094873;28;20110;-82
2021/10/11 07:04:46;;;;;;;24.02;10.02;;;;;;;;;;5095235;28;20028;-83
2021/10/11 07:07:12;;;;;;;22.27;10.52;;;;;;;;;;5096373;28;20380;-82
2021/10/11 07:09:38;;;;;;;26.10;10.98;;;;;;;;;;5095127;28;20031;-82
2021/10/11 07:12:05;;;;;;;28.35;11.05;;;;;;;;;;5095198;28;20024;-82
2021/10/11 07:14:31;;;;;;;23.50;11.80;;;;;;;;;;5094924;28;20020;-83
2021/10/11 07:16:57;;;;;;;23.08;12.15;;;;;;;;;;5094747;28;20476;-83
2021/10/11 07:19:23;;;;;;;21.40;11.57;;;;;;;;;;5094827;28;20025;-82
2021/10/11 07:21:51;;;;;;;22.48;10.95;;;;;;;;;;5094546;28;20568;-82
2021/10/11 07:24:18;;;;;;;20.60;11.02;;;;;;;;;;5094727;28;20103;-82
2021/10/11 07:26:44;;;;;;;25.10;11.65;;;;;;;;;;5094878;28;20028;-82
2021/10/11 07:29:10;;;;;;;19.60;10.65;;;;;;;;;;5094619;28;20468;-82
2021/10/11 07:31:36;;;;;;;22.13;10.55;;;;;;;;;;5094727;28;20058;-83
2021/10/11 07:34:02;;;;;;;22.05;10.65;;;;;;;;;;5094718;28;20060;-83
2021/10/11 07:36:28;;;;;;;21.65;10.45;;;;;;;;;;5094606;28;20102;-83
2021/10/11 07:38:55;;;;;;;28.98;10.57;;;;;;;;;;5094070;28;20040;-83
2021/10/11 07:41:21;;;;;;;19.58;10.23;;;;;;;;;;5095641;28;20020;-83
2021/10/11 07:43:47;;;;;;;19.45;9.48;;;;;;;;;;5094152;28;20032;-82
2021/10/11 07:46:14;;;;;;;21.13;9.85;;;;;;;;;;5094455;28;20028;-83
2021/10/11 07:48:40;;;;;;;25.52;9.75;;;;;;;;;;5094306;28;20032;-83
2021/10/11 07:51:06;;;;;;;19.30;9.50;;;;;;;;;;5095530;28;20070;-82
2021/10/11 07:53:33;;;;;;;18.40;8.70;;;;;;;;;;5094186;28;20120;-82
2021/10/11 07:55:59;;;;;;;22.20;9.07;;;;;;;;;;5094754;28;20051;-83
2021/10/11 07:58:25;;;;;;;17.52;8.35;;;;;;;;;;5095419;28;20467;-83
2021/10/11 08:00:51;;;;;;;22.75;8.73;;;;;;;;;;5095435;28;20051;-83
2021/10/11 08:03:17;;;;;;;17.42;8.88;;;;;;;;;;5094896;28;20027;-83
2021/10/11 08:05:44;;;;;;;18.00;9.13;;;;;;;;;;5095385;28;20528;-83
2021/10/11 08:08:10;;;;;;;21.17;9.10;;;;;;;;;;5095266;28;20153;-83
2021/10/11 08:10:36;;;;;;;17.90;9.07;;;;;;;;;;5093991;28;20107;-83
2021/10/11 08:13:03;;;;;;;19.35;9.02;;;;;;;;;;5095145;28;20539;-83
2021/10/11 08:15:29;;;;;;;15.80;8.95;;;;;;;;;;5093837;28;20035;-83
2021/10/11 08:17:55;;;;;;;19.92;9.57;;;;;;;;;;5095190;28;20103;-82
2021/10/11 08:20:21;;;;;;;18.55;8.73;;;;;;;;;;5094932;28;20453;-82
2021/10/11 08:22:47;;;;;;;17.85;8.93;;;;;;;;;;5093263;28;20111;-83
2021/10/11 08:25:16;;;;;;;17.15;8.32;;;;;;;;;;5094922;28;20537;-82
2021/10/11 08:27:42;;;;;;;18.75;7.78;;;;;;;;;;5095326;28;20026;-83
2021/10/11 08:30:09;;;;;;;16.60;8.48;;;;;;;;;;5094990;28;20050;-83
2021/10/11 08:32:35;;;;;;;19.95;7.55;;;;;;;;;;5095123;28;20020;-84
2021/10/11 08:35:01;;;;;;;18.20;8.02;;;;;;;;;;5095128;28;20103;-83
2021/10/11 08:37:29;;;;;;;17.48;7.60;;;;;;;;;;5093574;28;20016;-84
2021/10/11 08:39:55;;;;;;;12.48;7.03;;;;;;;;;;5090956;28;20114;-84
2021/10/11 08:42:22;;;;;;;13.35;6.47;;;;;;;;;;5092671;28;20476;-84
2021/10/11 08:44:49;;;;;;;14.25;6.20;;;;;;;;;;5093184;28;20380;-84
2021/10/11 08:47:16;;;;;;;14.38;5.85;;;;;;;;;;5093397;28;20016;-84
2021/10/11 08:49:43;;;;;;;13.70;5.30;;;;;;;;;;5092696;28;20036;-84
2021/10/11 08:52:09;;;;;;;16.17;6.30;;;;;;;;;;5094514;28;20507;-85
2021/10/11 08:54:41;;;;;;;14.48;5.75;;;;;;;;;;5092916;28;20140;-84
2021/10/11 08:57:07;;;;;;;11.75;5.50;;;;;;;;;;5093042;28;20484;-84
2021/10/11 08:59:33;;;;;;;11.07;5.10;;;;;;;;;;5093022;28;20165;-82
2021/10/11 09:02:03;;;;;;;12.52;6.03;;;;;;;;;;5093946;28;20039;-83
2021/10/11 09:04:29;;;;;;;10.63;5.43;;;;;;;;;;5092725;28;20030;-84
2021/10/11 09:07:06;;;;;;;14.30;5.53;;;;;;;;;;5092949;28;20024;-84
2021/10/11 09:09:32;;;;;;;10.68;4.88;;;;;;;;;;5092885;28;20035;-84
2021/10/11 09:11:59;;;;;;;9.77;5.00;;;;;;;;;;5092897;28;20028;-84
2021/10/11 09:14:27;;;;;;;10.35;5.50;;;;;;;;;;5092635;28;20073;-84
2021/10/11 09:17:04;;;;;;;11.43;5.97;;;;;;;;;;5092759;28;20024;-85
2021/10/11 09:19:46;;;;;;;12.73;5.63;;;;;;;;;;5092645;28;20036;-82
2021/10/11 09:22:12;;;;;;;12.63;5.70;;;;;;;;;;5092522;28;20024;-83
2021/10/11 09:24:38;;;;;;;11.38;5.13;;;;;;;;;;5092367;28;20081;-83
2021/10/11 09:27:04;;;;;;;16.23;5.57;;;;;;;;;;5092646;28;20020;-82
2021/10/11 09:29:31;;;;;;;8.95;5.70;;;;;;;;;;5092426;28;20115;-83
2021/10/11 09:31:59;;;;;;;9.68;5.70;;;;;;;;;;5092550;28;20119;-82
2021/10/11 09:34:25;;;;;;;11.18;5.65;;;;;;;;;;5093646;28;20023;-82
2021/10/11 09:37:02;;;;;;;9.30;5.32;;;;;;;;;;5092406;28;20032;-83
2021/10/11 09:39:29;;;;;;;10.70;5.05;;;;;;;;;;5092416;28;20380;-82
2021/10/11 09:41:56;;;;;;;13.60;6.03;;;;;;;;;;5092071;28;20035;-83
2021/10/11 09:44:23;;;;;;;10.73;5.38;;;;;;;;;;5092132;28;20480;-84
2021/10/11 09:46:55;;;;;;;15.48;5.40;;;;;;;;;;5092285;28;20141;-85
2021/10/11 09:49:23;;;;;;;10.20;5.25;;;;;;;;;;5094781;28;20472;-84
2021/10/11 09:51:50;;;;;;;15.75;5.70;;;;;;;;;;5092580;28;20383;-83
2021/10/11 09:54:16;;;;;;;13.73;5.35;;;;;;;;;;5091879;28;20036;-83
2021/10/11 09:56:43;;;;;;;8.38;4.90;;;;;;;;;;5092965;28;20028;-83
2021/10/11 09:59:10;;;;;;;10.50;4.53;;;;;;;;;;5092185;28;20032;-83
2021/10/11 10:01:36;;;;;;;11.32;4.80;;;;;;;;;;5096207;28;20024;-83
2021/10/11 10:04:03;;;;;;;9.40;4.70;;;;;;;;;;5098676;28;20024;-83
2021/10/11 10:06:31;;;;;;;12.85;5.07;;;;;;;;;;5100384;28;20123;-83
2021/10/11 10:08:58;;;;;;;10.20;4.90;;;;;;;;;;5098831;28;20040;-83
2021/10/11 10:11:28;;;;;;;11.90;4.80;;;;;;;;;;5100067;28;20516;-83
2021/10/11 10:13:54;;;;;;;8.05;4.53;;;;;;;;;;5098832;28;20012;-82
2021/10/11 10:16:20;;;;;;;8.77;4.82;;;;;;;;;;5098688;28;20114;-84
2021/10/11 10:18:47;;;;;;;11.70;4.78;;;;;;;;;;5098746;28;20118;-83
2021/10/11 10:21:15;;;;;;;9.60;4.43;;;;;;;;;;5098636;28;20395;-84
2021/10/11 10:23:45;;;;;;;14.95;4.38;;;;;;;;;;5099672;28;20076;-83
2021/10/11 10:26:13;;;;;;;6.40;4.13;;;;;;;;;;5098720;28;20023;-86
2021/10/11 10:28:47;;;;;;;7.20;4.38;;;;;;;;;;5098493;28;20016;-83
2021/10/11 10:31:45;;;;;;;11.23;4.72;;;;;;;;;;5098686;28;20115;-83
2021/10/11 10:34:24;;;;;;;8.38;4.13;;;;;;;;;;5051431;28;20393;-83
2021/10/11 10:37:00;;;;;;;13.50;4.65;;;;;;;;;;5078359;28;20024;-83
2021/10/11 10:39:36;;;;;;;10.63;4.57;;;;;;;;;;5078345;28;20028;-82
2021/10/11 10:42:02;;;;;;;9.77;4.70;;;;;;;;;;5079437;28;20044;-83
2021/10/11 10:44:28;;;;;;;10.52;4.47;;;;;;;;;;5078035;28;20028;-83
2021/10/11 10:46:56;;;;;;;8.23;4.40;;;;;;;;;;5078173;28;20024;-83
2021/10/11 10:49:31;;;;;;;8.65;4.20;;;;;;;;;;5079406;28;20481;-83
2021/10/11 10:51:58;;;;;;;12.45;4.78;;;;;;;;;;5078137;28;20020;-83
2021/10/11 10:54:35;;;;;;;8.30;4.30;;;;;;;;;;5078970;28;20060;-83
2021/10/11 10:57:01;;;;;;;8.30;4.07;;;;;;;;;;5078181;28;20488;-83
2021/10/11 10:59:27;;;;;;;11.07;4.10;;;;;;;;;;5078193;28;20116;-83
2021/10/11 11:02:07;;;;;;;7.55;3.95;;;;;;;;;;5077781;28;20028;-83
2021/10/11 11:04:33;;;;;;;7.97;4.20;;;;;;;;;;5077890;28;20086;-83
2021/10/11 11:07:05;;;;;;;8.75;3.92;;;;;;;;;;5078012;28;20031;-85
2021/10/11 11:09:42;;;;;;;10.02;4.80;;;;;;;;;;5077972;28;20135;-83
2021/10/11 11:12:09;;;;;;;12.73;4.65;;;;;;;;;;5077884;28;20085;-83
2021/10/11 11:14:35;;;;;;;11.82;4.20;;;;;;;;;;5075419;28;20029;-86
2021/10/11 11:17:01;;;;;;;8.32;4.72;;;;;;;;;;5076090;28;20029;-84
2021/10/11 11:19:41;;;;;;;12.90;4.82;;;;;;;;;;5076252;28;20027;-82
2021/10/11 11:22:07;;;;;;;7.80;3.92;;;;;;;;;;5074487;28;20037;-83
2021/10/11 11:24:34;;;;;;;10.57;4.32;;;;;;;;;;5074399;28;20025;-84
2021/10/11 11:27:02;;;;;;;9.85;4.32;;;;;;;;;;5075927;28;20028;-87
2021/10/11 11:29:29;;;;;;;11.82;4.97;;;;;;;;;;5074583;28;20498;-85
2021/10/11 11:31:55;;;;;;;9.73;4.43;;;;;;;;;;5075961;28;20048;-83
2021/10/11 11:34:22;;;;;;;8.00;4.78;;;;;;;;;;5086980;28;20024;-84
2021/10/11 11:36:51;;;;;;;11.32;4.30;;;;;;;;;;5094788;28;20454;-84
2021/10/11 11:39:18;;;;;;;13.57;4.70;;;;;;;;;;5094664;28;20077;-83
2021/10/11 11:41:55;;;;;;;9.80;4.75;;;;;;;;;;5094283;28;20056;-83
2021/10/11 11:44:27;;;;;;;9.98;4.93;;;;;;;;;;5094368;28;20037;-84
2021/10/11 11:47:12;;;;;;;17.20;4.88;;;;;;;;;;5094491;28;20024;-84
2021/10/11 11:49:41;;;;;;;10.50;4.78;;;;;;;;;;5094547;28;20056;-85
2021/10/11 11:52:08;;;;;;;9.75;5.47;;;;;;;;;;5094451;28;20061;-83
2021/10/11 11:54:34;;;;;;;13.68;5.82;;;;;;;;;;5095405;28;20377;-83
2021/10/11 11:57:00;;;;;;;10.05;5.57;;;;;;;;;;5094368;28;20021;-83
2021/10/11 11:59:28;;;;;;;13.98;6.60;;;;;;;;;;5094301;28;20430;-84
2021/10/11 12:01:54;;;;;;;9.68;5.38;;;;;;;;;;5095168;28;20069;-82
2021/10/11 12:04:21;;;;;;;9.38;5.22;;;;;;;;;;5093978;28;20095;-81
2021/10/11 12:06:47;;;;;;;9.73;5.25;;;;;;;;;;5094189;28;20020;-85
2021/10/11 12:09:13;;;;;;;11.77;5.70;;;;;;;;;;5094063;28;20036;-82
2021/10/11 12:11:39;;;;;;;14.20;5.25;;;;;;;;;;5095316;28;20025;-83
2021/10/11 12:14:06;;;;;;;9.82;5.20;;;;;;;;;;5093962;28;20055;-83
2021/10/11 12:16:33;;;;;;;8.63;5.03;;;;;;;;;;5095015;28;20080;-82
2021/10/11 12:19:00;;;;;;;8.45;5.18;;;;;;;;;;5095528;28;20024;-82
2021/10/11 12:21:31;;;;;;;7.68;4.80;;;;;;;;;;5094931;28;20103;-82
2021/10/11 12:23:58;;;;;;;12.93;5.90;;;;;;;;;;5094398;28;20106;-85
2021/10/11 12:26:25;;;;;;;12.20;5.28;;;;;;;;;;5094103;28;20016;-82
2021/10/11 12:28:53;;;;;;;9.45;5.35;;;;;;;;;;5094920;28;20024;-81
2021/10/11 12:31:20;;;;;;;10.00;5.65;;;;;;;;;;5093642;28;20495;-82
2021/10/11 12:33:46;;;;;;;9.52;5.38;;;;;;;;;;5093795;28;20032;-81
2021/10/11 12:36:12;;;;;;;10.25;5.68;;;;;;;;;;5094750;28;20039;-81
2021/10/11 12:38:40;;;;;;;14.68;5.70;;;;;;;;;;5094498;28;20027;-81
2021/10/11 12:41:28;;;;;;;10.30;5.35;;;;;;;;;;5093173;28;20476;-80
2021/10/11 12:43:59;;;;;;;8.60;5.43;;;;;;;;;;5094417;28;20022;-81
2021/10/11 12:46:25;;;;;;;10.43;5.35;;;;;;;;;;5094644;28;20021;-82
2021/10/11 12:49:01;;;;;;;8.13;5.05;;;;;;;;;;5094472;28;20073;-83
2021/10/11 12:51:32;;;;;;;11.00;6.05;;;;;;;;;;5095207;28;20487;-81
2021/10/11 12:54:01;;;;;;;16.90;5.47;;;;;;;;;;5093248;28;20058;-82
2021/10/11 12:56:27;;;;;;;8.63;5.28;;;;;;;;;;5092945;28;20408;-84
2021/10/11 12:59:00;;;;;;;14.10;6.20;;;;;;;;;;5093146;28;20056;-82
2021/10/11 13:01:26;;;;;;;10.45;5.78;;;;;;;;;;5094469;28;20078;-82
2021/10/11 13:03:53;;;;;;;9.88;5.68;;;;;;;;;;5093573;28;20104;-81
2021/10/11 13:06:22;;;;;;;8.57;5.28;;;;;;;;;;5092531;28;20500;-83
2021/10/11 13:08:48;;;;;;;7.78;4.97;;;;;;;;;;5092712;28;20045;-81
2021/10/11 13:11:15;;;;;;;9.02;4.95;;;;;;;;;;5094164;28;20060;-81
2021/10/11 13:13:41;;;;;;;10.55;4.80;;;;;;;;;;5092798;28;20059;-81
2021/10/11 13:16:07;;;;;;;8.68;5.18;;;;;;;;;;5092773;28;20028;-83
2021/10/11 13:18:35;;;;;;;9.90;5.32;;;;;;;;;;5092622;28;20024;-86
2021/10/11 13:21:01;;;;;;;9.15;5.00;;;;;;;;;;5092785;28;20027;-83
2021/10/11 13:23:28;;;;;;;8.02;4.75;;;;;;;;;;5092888;28;20533;-82
2021/10/11 13:25:54;;;;;;;10.15;4.93;;;;;;;;;;5092378;28;20069;-83
2021/10/11 13:28:20;;;;;;;12.75;5.00;;;;;;;;;;5092414;28;20100;-81
2021/10/11 14:27:41;;;;;;;8.82;4.10;;;;;;;;;;5093572;28;20031;-82
2021/10/11 14:30:16;;;;;;;9.43;4.63;;;;;;;;;;5092102;28;20047;-82
2021/10/11 14:32:57;;;;;;;7.65;4.25;;;;;;;;;;5091976;28;20069;-83
2021/10/11 16:00:46;;;;;;;14.32;4.15;;;;;;;;;;5095865;28;20043;-84
2021/10/11 16:03:30;;;;;;;10.60;3.75;;;;;;;;;;5094294;28;20366;-84
2021/10/11 16:05:57;;;;;;;8.25;3.10;;;;;;;;;;5094282;28;20028;-84
2021/10/11 16:08:23;;;;;;;7.35;3.63;;;;;;;;;;5094226;28;20384;-83
2021/10/11 16:10:49;;;;;;;5.85;2.97;;;;;;;;;;5094145;28;20047;-83
2021/10/11 16:13:16;;;;;;;7.93;3.35;;;;;;;;;;5093933;28;20472;-84
2021/10/11 16:15:42;;;;;;;6.63;2.92;;;;;;;;;;5095546;28;20047;-84
2021/10/11 16:18:08;;;;;;;6.95;2.80;;;;;;;;;;5093993;28;20089;-84
2021/10/11 16:20:35;;;;;;;5.05;2.90;;;;;;;;;;5095736;28;20043;-84
2021/10/11 16:23:01;;;;;;;9.82;2.85;;;;;;;;;;5083626;28;20376;-83
2021/10/11 16:25:28;;;;;;;8.60;3.33;;;;;;;;;;5090700;28;20031;-82
2021/10/11 16:27:54;;;;;;;7.38;2.90;;;;;;;;;;5090367;28;20029;-83
2021/10/11 16:30:20;;;;;;;8.00;3.33;;;;;;;;;;5090098;28;20035;-83
2021/10/11 16:32:46;;;;;;;10.93;3.13;;;;;;;;;;5074706;28;20046;-82
2021/10/11 16:35:12;;;;;;;7.32;3.00;;;;;;;;;;5074780;28;20036;-83
2021/10/11 16:37:38;;;;;;;7.47;3.22;;;;;;;;;;5090234;28;20021;-82
2021/10/11 16:40:06;;;;;;;8.20;3.10;;;;;;;;;;5090398;28;20403;-83
2021/10/11 16:42:32;;;;;;;5.97;2.47;;;;;;;;;;5075181;28;20017;-84
2021/10/11 16:44:59;;;;;;;6.65;2.67;;;;;;;;;;5090184;28;20128;-85
2021/10/11 16:47:25;;;;;;;8.40;2.95;;;;;;;;;;5090217;28;20032;-84
2021/10/11 16:49:51;;;;;;;6.40;3.22;;;;;;;;;;5102140;28;20024;-82
2021/10/11 16:52:18;;;;;;;4.55;2.60;;;;;;;;;;5094923;28;20353;-82